Time;durP1;ratioP1;P1;durP2;ratioP2;P2;SDS_P1;SDS_P2;PMS_P1;PMS_P2;Temp;Humidity;BMP_temperature;BMP_pressure;BME280_temperature;BME280_humidity;BME280_pressure;Samples;Min_cycle;Max_cycle;Signal;HPM_P1;HPM_P2
2023/11/26 00:00:47;;;;;;;2.40;1.70;;;;;;;-145.69;66.42;52418.63;5084648;28;20437;-80
2023/11/26 00:03:14;;;;;;;2.13;1.60;;;;;;;-145.69;66.93;52369.13;5084975;28;20209;-81
2023/11/26 00:05:42;;;;;;;2.03;1.60;;;;;;;-145.69;66.34;52377.06;5085314;28;20672;-80
2023/11/26 00:08:10;;;;;;;3.53;1.80;;;;;;;-145.69;66.98;52383.00;5082162;28;20725;-81
2023/11/26 00:10:36;;;;;;;2.77;1.80;;;;;;;-145.69;66.68;52406.75;5085049;28;20210;-80
2023/11/26 00:13:03;;;;;;;1.87;1.67;;;;;;;-145.69;66.63;52377.06;5083229;28;20662;-80
2023/11/26 00:15:31;;;;;;;2.53;1.83;;;;;;;-145.69;66.49;52369.13;5079848;28;20194;-80
2023/11/26 00:17:58;;;;;;;3.10;1.97;;;;;;;-145.69;66.64;52388.94;5077306;28;20195;-81
2023/11/26 00:20:25;;;;;;;1.97;1.43;;;;;;;-145.69;66.53;52379.03;5064696;28;20199;-81
2023/11/26 00:22:51;;;;;;;2.13;1.43;;;;;;;-145.69;66.68;52400.81;5055685;28;20268;-80
2023/11/26 00:25:18;;;;;;;1.67;1.30;;;;;;;-145.69;66.97;52384.97;5054233;28;20318;-81
2023/11/26 00:27:47;;;;;;;2.03;1.27;;;;;;;-145.69;66.77;52392.91;5063773;28;20204;-81
2023/11/26 00:30:20;;;;;;;3.67;1.43;;;;;;;-145.69;66.99;52384.97;5063446;28;20544;-80
2023/11/26 00:32:48;;;;;;;1.73;1.20;;;;;;;-145.69;67.05;52365.16;5064808;28;20597;-80
2023/11/26 00:35:16;;;;;;;1.50;1.40;;;;;;;-145.69;67.35;52400.81;5064865;28;20199;-80
2023/11/26 00:37:43;;;;;;;2.77;1.80;;;;;;;-145.69;66.74;52381.00;5061822;28;20199;-81
2023/11/26 00:40:12;;;;;;;3.07;1.53;;;;;;;-145.69;67.10;52424.59;5063035;28;20211;-81
2023/11/26 00:42:39;;;;;;;3.53;1.90;;;;;;;-145.69;66.90;52357.25;5059901;28;20207;-80
2023/11/26 00:45:06;;;;;;;1.77;1.57;;;;;;;-145.69;67.07;52408.75;5059417;28;20250;-80
2023/11/26 00:47:33;;;;;;;3.80;2.00;;;;;;;-145.69;67.05;52353.28;5068992;28;20256;-80
2023/11/26 00:50:03;;;;;;;2.53;1.90;;;;;;;-145.69;66.93;52384.97;5078885;28;20213;-80
2023/11/26 00:52:31;;;;;;;2.07;1.43;;;;;;;-145.69;66.53;52400.81;5079523;28;20207;-81
2023/11/26 00:54:58;;;;;;;2.53;1.90;;;;;;;-145.69;67.08;52386.97;5077206;28;20202;-80
2023/11/26 00:57:24;;;;;;;2.33;1.53;;;;;;;-145.69;66.88;52379.03;5077162;28;20282;-80
2023/11/26 00:59:51;;;;;;;3.47;1.63;;;;;;;-145.69;66.56;52410.72;5079558;28;20226;-80
2023/11/26 01:02:19;;;;;;;1.80;1.60;;;;;;;-145.69;67.04;52424.59;5081237;28;20262;-81
2023/11/26 01:04:54;;;;;;;1.90;1.60;;;;;;;-145.69;66.40;52396.84;5079420;28;20227;-81
2023/11/26 01:07:22;;;;;;;1.50;1.30;;;;;;;-145.69;66.89;52384.97;5081808;28;20202;-81
2023/11/26 01:09:49;;;;;;;2.03;1.57;;;;;;;-145.69;66.30;52375.06;5079355;28;20220;-81
2023/11/26 01:12:15;;;;;;;3.33;1.60;;;;;;;-145.69;66.35;52392.91;5080365;28;20220;-80
2023/11/26 01:14:42;;;;;;;3.07;1.57;;;;;;;-145.69;66.49;52373.09;5081699;28;20271;-80
2023/11/26 01:17:09;;;;;;;2.03;1.67;;;;;;;-145.69;66.66;52359.22;5083050;28;20194;-81
2023/11/26 01:19:45;;;;;;;2.40;1.30;;;;;;;-145.69;66.93;52379.03;5082718;28;20205;-80
2023/11/26 01:22:11;;;;;;;2.13;1.50;;;;;;;-145.69;66.22;52371.13;5073323;28;20199;-81
2023/11/26 01:24:48;;;;;;;3.00;1.50;;;;;;;-145.69;66.36;52381.00;5063305;28;20223;-80
2023/11/26 01:27:15;;;;;;;1.23;1.10;;;;;;;-145.69;66.33;52400.81;5065312;28;20278;-82
2023/11/26 01:29:41;;;;;;;3.53;1.43;;;;;;;-145.69;66.28;52396.84;5065260;28;20203;-81
2023/11/26 01:32:08;;;;;;;1.97;1.43;;;;;;;-145.69;66.19;52392.91;5079777;28;20275;-81
2023/11/26 01:34:35;;;;;;;1.73;1.23;;;;;;;-145.69;66.10;52402.78;5085217;28;20665;-81
2023/11/26 01:37:01;;;;;;;1.90;1.43;;;;;;;-145.69;66.21;52345.38;5085535;28;20206;-81
2023/11/26 01:39:28;;;;;;;1.47;1.37;;;;;;;-145.69;66.23;52420.63;5089924;28;20605;-81
2023/11/26 01:41:56;;;;;;;2.27;1.50;;;;;;;-145.69;66.28;52373.09;5088919;28;20293;-81
2023/11/26 01:44:23;;;;;;;1.20;1.10;;;;;;;-145.69;66.75;52390.91;5090317;28;20222;-81
2023/11/26 01:46:50;;;;;;;1.87;1.30;;;;;;;-145.69;66.66;52420.63;5089821;28;20221;-81
2023/11/26 01:49:17;;;;;;;1.60;1.30;;;;;;;-145.69;65.63;52373.09;5089345;28;20255;-81
2023/11/26 01:51:43;;;;;;;1.10;1.00;;;;;;;-145.69;64.88;52381.00;5085479;28;20201;-81
2023/11/26 01:54:11;;;;;;;1.00;0.73;;;;;;;-145.69;64.77;52400.81;5079536;28;20661;-81
2023/11/26 01:56:38;;;;;;;1.20;0.60;;;;;;;-145.69;65.95;52400.81;5081868;28;20210;-81
2023/11/26 01:59:06;;;;;;;0.70;0.60;;;;;;;-145.69;66.02;52392.91;5082235;28;20214;-82
2023/11/26 02:01:34;;;;;;;1.23;0.80;;;;;;;-145.69;66.34;52408.75;5082724;28;20198;-82
2023/11/26 02:04:01;;;;;;;1.83;0.87;;;;;;;-145.69;66.72;52392.91;5082610;28;20655;-82
2023/11/26 02:06:28;;;;;;;2.23;0.70;;;;;;;-145.69;66.63;52375.06;5080264;28;20206;-82
2023/11/26 02:08:58;;;;;;;1.03;0.70;;;;;;;-145.69;66.85;52388.94;5078918;28;20230;-82
2023/11/26 02:11:24;;;;;;;1.60;0.70;;;;;;;-145.69;66.94;52414.69;5078081;28;20211;-83
2023/11/26 02:13:54;;;;;;;0.70;0.67;;;;;;;-145.69;66.52;52422.59;5076561;28;20561;-82
2023/11/26 02:16:22;;;;;;;0.70;0.70;;;;;;;-145.69;66.70;52404.78;5076670;28;20202;-83
2023/11/26 02:18:49;;;;;;;0.87;0.70;;;;;;;-145.69;66.33;52406.75;5077285;28;20194;-82
2023/11/26 02:21:17;;;;;;;0.70;0.70;;;;;;;-145.69;66.46;52400.81;5076823;28;20206;-83
2023/11/26 02:23:46;;;;;;;0.70;0.70;;;;;;;-145.69;66.47;52384.97;5076861;28;20207;-83
2023/11/26 02:26:14;;;;;;;0.60;0.60;;;;;;;-145.69;66.85;52381.00;5076213;28;20199;-83
2023/11/26 02:28:43;;;;;;;1.13;0.70;;;;;;;-145.69;66.47;52373.09;5076540;28;20207;-83
2023/11/26 02:31:10;;;;;;;0.50;0.50;;;;;;;-145.69;66.30;52392.91;5076549;28;20214;-83
2023/11/26 02:33:37;;;;;;;0.70;0.70;;;;;;;-145.69;65.84;52404.78;5076253;28;20202;-84
2023/11/26 02:36:07;;;;;;;0.70;0.70;;;;;;;-145.69;66.33;52383.00;5076371;28;20206;-84
2023/11/26 02:38:34;;;;;;;0.77;0.70;;;;;;;-145.69;66.03;52400.81;5076213;28;20654;-84
2023/11/26 02:41:00;;;;;;;0.60;0.60;;;;;;;-145.69;66.28;52396.84;5076328;28;20214;-83
2023/11/26 02:43:28;;;;;;;0.60;0.60;;;;;;;-145.69;66.25;52381.00;5076162;28;20203;-84
2023/11/26 02:45:58;;;;;;;0.50;0.50;;;;;;;-145.69;66.66;52388.94;5076530;28;20240;-85
2023/11/26 02:48:26;;;;;;;0.50;0.50;;;;;;;-145.69;66.60;52388.94;5075417;28;20206;-84
2023/11/26 02:50:55;;;;;;;2.00;0.50;;;;;;;-145.69;66.13;52361.22;5075353;28;20195;-84
2023/11/26 02:53:24;;;;;;;0.57;0.57;;;;;;;-145.69;66.51;52369.13;5076226;28;20202;-84
2023/11/26 02:55:51;;;;;;;0.40;0.40;;;;;;;-145.69;66.48;52379.03;5076131;28;20226;-85
2023/11/26 02:58:20;;;;;;;0.50;0.50;;;;;;;-145.69;66.86;52396.84;5076118;28;20306;-85
2023/11/26 03:00:49;;;;;;;0.53;0.53;;;;;;;-145.69;67.14;52444.38;5076150;28;20619;-84
2023/11/26 03:03:19;;;;;;;0.77;0.77;;;;;;;-145.69;66.74;52430.53;5075755;28;20562;-85
2023/11/26 03:05:50;;;;;;;0.90;0.90;;;;;;;-145.69;66.82;52420.63;5075843;28;20245;-84
2023/11/26 03:13:41;;;;;;;10.30;1.00;;;;;;;-145.69;66.93;52377.06;5075770;28;20549;-84
2023/11/26 03:16:11;;;;;;;7.03;1.27;;;;;;;-145.69;66.99;52414.69;5075788;28;20234;-84
2023/11/26 03:18:38;;;;;;;25.43;1.40;;;;;;;-145.69;67.02;52386.97;5075609;28;20684;-84
2023/11/26 03:21:05;;;;;;;44.13;1.73;;;;;;;-145.69;67.31;52406.75;5075527;28;20286;-84
2023/11/26 03:23:32;;;;;;;12.67;1.43;;;;;;;-145.69;66.83;52377.06;5075511;28;20248;-84
2023/11/26 03:26:00;;;;;;;16.13;2.00;;;;;;;-145.69;66.94;52394.88;5075448;28;20230;-84
2023/11/26 03:28:29;;;;;;;12.23;1.70;;;;;;;-145.69;66.95;52373.09;5072148;28;20198;-84
2023/11/26 03:31:00;;;;;;;6.63;1.63;;;;;;;-145.69;67.28;52412.69;5074114;28;20210;-84
2023/11/26 03:33:34;;;;;;;1.63;1.37;;;;;;;-145.69;66.78;52412.69;5075034;28;20203;-84
2023/11/26 03:36:12;;;;;;;1.23;1.13;;;;;;;-145.69;67.14;52412.69;5075365;28;20712;-83
2023/11/26 03:38:38;;;;;;;1.80;1.43;;;;;;;-145.69;67.26;52396.84;5075197;28;20203;-84
2023/11/26 03:41:05;;;;;;;1.30;1.13;;;;;;;-145.69;66.71;52432.50;5066148;28;20669;-85
2023/11/26 03:43:32;;;;;;;1.63;1.00;;;;;;;-145.69;66.64;52408.75;5055343;28;20199;-84
2023/11/26 03:46:04;;;;;;;1.37;1.00;;;;;;;-145.69;66.70;52377.06;5055102;28;20711;-84
2023/11/26 03:48:32;;;;;;;1.77;1.03;;;;;;;-145.69;66.89;52408.75;5074649;28;20256;-84
2023/11/26 03:51:01;;;;;;;1.83;0.90;;;;;;;-145.69;67.32;52420.63;5074991;28;20209;-84
2023/11/26 03:53:27;;;;;;;1.20;1.10;;;;;;;-145.69;67.13;52410.72;5074836;28;20206;-84
2023/11/26 03:55:56;;;;;;;1.07;1.00;;;;;;;-145.69;67.28;52384.97;5074847;28;20210;-85
2023/11/26 03:58:23;;;;;;;1.17;1.07;;;;;;;-145.69;67.96;52388.94;5074937;28;20207;-84
2023/11/26 04:00:57;;;;;;;1.87;1.07;;;;;;;-145.69;67.57;52418.63;5074545;28;20238;-84
2023/11/26 04:03:23;;;;;;;2.10;0.83;;;;;;;-145.69;67.63;52377.06;5074715;28;20205;-84
2023/11/26 04:05:54;;;;;;;2.70;1.13;;;;;;;-145.69;67.24;52428.53;5074587;28;20230;-83
2023/11/26 04:08:21;;;;;;;1.50;0.90;;;;;;;-145.69;67.53;52402.78;5074503;28;20235;-84
2023/11/26 04:10:48;;;;;;;0.93;0.83;;;;;;;-145.69;67.42;52388.94;5074751;28;20214;-84
2023/11/26 04:13:14;;;;;;;1.23;0.97;;;;;;;-145.69;67.40;52392.91;5074582;28;20209;-84
2023/11/26 04:15:45;;;;;;;2.73;1.30;;;;;;;-145.69;67.25;52392.91;5074507;28;20565;-83
2023/11/26 04:18:12;;;;;;;4.73;1.00;;;;;;;-145.69;67.66;52408.75;5074370;28;20290;-84
2023/11/26 04:20:39;;;;;;;2.00;1.10;;;;;;;-145.69;67.44;52428.53;5074442;28;20213;-83
2023/11/26 04:23:07;;;;;;;7.87;1.10;;;;;;;-145.69;67.57;52424.59;5074191;28;20210;-84
2023/11/26 04:25:34;;;;;;;3.90;1.60;;;;;;;-145.69;67.10;52410.72;5074322;28;20222;-84
2023/11/26 04:28:01;;;;;;;1.17;1.00;;;;;;;-145.69;67.35;52388.94;5074038;28;20249;-83
2023/11/26 04:30:28;;;;;;;2.70;1.20;;;;;;;-145.69;67.30;52388.94;5074417;28;20815;-83
2023/11/26 04:32:54;;;;;;;7.33;1.63;;;;;;;-145.69;67.25;52420.63;5074003;28;20205;-83
2023/11/26 04:35:21;;;;;;;1.63;1.23;;;;;;;-145.69;67.33;52406.75;5073968;28;20209;-83
2023/11/26 04:37:47;;;;;;;2.80;1.70;;;;;;;-145.69;67.42;52408.75;5074186;28;20206;-82
2023/11/26 04:40:17;;;;;;;1.47;1.30;;;;;;;-145.69;67.42;52426.56;5073420;28;20211;-83
2023/11/26 04:42:44;;;;;;;1.93;1.23;;;;;;;-145.69;67.28;52412.69;5073912;28;20234;-83
2023/11/26 04:45:11;;;;;;;1.57;1.37;;;;;;;-145.69;67.82;52384.97;5074261;28;20268;-83
2023/11/26 04:47:38;;;;;;;1.40;1.30;;;;;;;-145.69;67.72;52396.84;5073635;28;20194;-83
2023/11/26 04:50:05;;;;;;;2.20;1.67;;;;;;;-145.69;67.94;52412.69;5071588;28;20645;-82
2023/11/26 04:52:32;;;;;;;2.77;0.90;;;;;;;-145.69;67.48;52392.91;5073932;28;20206;-83
2023/11/26 04:54:59;;;;;;;1.43;0.97;;;;;;;-145.69;67.28;52396.84;5073670;28;20220;-83
2023/11/26 04:57:28;;;;;;;1.90;0.80;;;;;;;-145.69;67.30;52386.97;5073803;28;20539;-83
2023/11/26 04:59:55;;;;;;;1.40;1.00;;;;;;;-145.69;67.20;52388.94;5073704;28;20649;-84
2023/11/26 05:02:22;;;;;;;0.90;0.70;;;;;;;-145.69;67.43;52420.63;5073798;28;20211;-83
2023/11/26 05:04:55;;;;;;;1.20;1.10;;;;;;;-145.69;68.29;52392.91;5072614;28;20446;-83
2023/11/26 05:07:21;;;;;;;1.17;1.00;;;;;;;-145.69;67.58;52369.13;5073531;28;20214;-83
2023/11/26 05:09:48;;;;;;;3.00;0.93;;;;;;;-145.69;67.52;52408.75;5073567;28;20207;-83
2023/11/26 05:12:15;;;;;;;1.50;0.90;;;;;;;-145.69;67.13;52420.63;5073127;28;20608;-83
2023/11/26 05:14:44;;;;;;;1.70;0.80;;;;;;;-145.69;67.48;52404.78;5073516;28;20211;-84
2023/11/26 05:17:12;;;;;;;2.07;0.90;;;;;;;-145.69;67.03;52396.84;5071328;28;20194;-83
2023/11/26 05:19:41;;;;;;;2.37;0.70;;;;;;;-145.69;67.33;52359.22;5073277;28;20202;-83
2023/11/26 05:22:08;;;;;;;1.50;0.87;;;;;;;-145.69;66.85;52396.84;5073371;28;20198;-84
2023/11/26 05:24:34;;;;;;;1.00;0.90;;;;;;;-145.69;67.18;52371.13;5073099;28;20597;-84
2023/11/26 05:27:01;;;;;;;0.90;0.70;;;;;;;-145.69;66.92;52420.63;5072711;28;20226;-84
2023/11/26 05:29:32;;;;;;;2.40;0.77;;;;;;;-145.69;66.95;52444.38;5073217;28;20191;-84
2023/11/26 05:32:00;;;;;;;3.07;0.90;;;;;;;-145.69;66.87;52406.75;5073287;28;20210;-83
2023/11/26 05:34:28;;;;;;;0.97;0.80;;;;;;;-145.69;66.70;52384.97;5073165;28;20199;-84
2023/11/26 05:36:57;;;;;;;0.77;0.77;;;;;;;-145.69;67.18;52375.06;5073014;28;20202;-83
2023/11/26 05:39:26;;;;;;;0.50;0.50;;;;;;;-145.69;66.89;52369.13;5072814;28;20241;-84
2023/11/26 05:41:53;;;;;;;0.50;0.50;;;;;;;-145.69;66.95;52410.72;5073170;28;20539;-84
2023/11/26 05:44:23;;;;;;;0.63;0.63;;;;;;;-145.69;67.12;52422.59;5071647;28;20318;-83
2023/11/26 05:46:51;;;;;;;0.60;0.60;;;;;;;-145.69;67.07;52392.91;5071001;28;20225;-83
2023/11/26 05:49:19;;;;;;;0.77;0.50;;;;;;;-145.69;67.01;52424.59;5072884;28;20210;-84
2023/11/26 05:51:46;;;;;;;0.50;0.50;;;;;;;-145.69;67.22;52400.81;5073164;28;20210;-84
2023/11/26 05:54:13;;;;;;;0.70;0.70;;;;;;;-145.69;67.17;52412.69;5072863;28;20206;-83
2023/11/26 05:56:43;;;;;;;0.50;0.50;;;;;;;-145.69;66.66;52400.81;5072985;28;20217;-83
2023/11/26 05:59:12;;;;;;;1.30;1.20;;;;;;;-145.69;66.66;52381.00;5072919;28;20596;-84
2023/11/26 06:01:41;;;;;;;1.30;1.00;;;;;;;-145.69;66.55;52408.75;5072660;28;20207;-83
2023/11/26 06:04:07;;;;;;;1.07;0.90;;;;;;;-145.69;67.10;52456.28;5073027;28;20535;-84
2023/11/26 06:06:35;;;;;;;1.13;1.00;;;;;;;-145.69;67.05;52392.91;5072247;28;20256;-84
2023/11/26 06:09:05;;;;;;;4.00;2.07;;;;;;;-145.69;66.78;52375.06;5072581;28;20226;-83
2023/11/26 06:11:32;;;;;;;1.17;1.07;;;;;;;-145.69;67.12;52424.59;5072944;28;20203;-83
2023/11/26 06:13:58;;;;;;;1.63;1.30;;;;;;;-145.69;66.87;52392.91;5072717;28;20302;-83
2023/11/26 06:16:25;;;;;;;2.97;1.20;;;;;;;-145.69;66.11;52383.00;5072383;28;20203;-83
2023/11/26 06:18:52;;;;;;;2.40;1.10;;;;;;;-145.69;66.53;52394.88;5072406;28;20210;-83
2023/11/26 06:21:19;;;;;;;1.00;0.90;;;;;;;-145.69;66.48;52377.06;5067391;28;20204;-83
2023/11/26 06:23:47;;;;;;;0.90;0.70;;;;;;;-145.69;66.45;52390.91;5053685;28;20200;-83
2023/11/26 06:26:16;;;;;;;0.70;0.70;;;;;;;-145.69;66.58;52400.81;5056027;28;20223;-83
2023/11/26 06:28:43;;;;;;;0.70;0.70;;;;;;;-145.69;66.38;52398.84;5056211;28;20261;-83
2023/11/26 06:31:10;;;;;;;0.70;0.70;;;;;;;-145.69;66.18;52398.84;5056053;28;20662;-82
2023/11/26 06:33:42;;;;;;;0.83;0.83;;;;;;;-145.69;66.27;52381.00;5056156;28;20218;-82
2023/11/26 06:36:17;;;;;;;2.07;1.10;;;;;;;-145.69;66.40;52365.16;5055699;28;20199;-83
2023/11/26 06:38:43;;;;;;;1.30;1.10;;;;;;;-145.69;66.42;52400.81;5056006;28;20297;-82
2023/11/26 06:41:24;;;;;;;2.33;1.40;;;;;;;-145.69;66.58;52408.75;5055815;28;20206;-82
2023/11/26 06:43:53;;;;;;;2.33;1.07;;;;;;;-145.69;66.52;52383.00;5055854;28;20602;-82
2023/11/26 06:46:20;;;;;;;4.93;1.27;;;;;;;-145.69;65.94;52408.75;5055682;28;20231;-82
2023/11/26 06:48:47;;;;;;;1.27;1.17;;;;;;;-145.69;66.40;52392.91;5075719;28;20206;-82
2023/11/26 06:51:17;;;;;;;2.00;1.30;;;;;;;-145.69;66.46;52418.63;5075812;28;20206;-82
2023/11/26 06:53:44;;;;;;;2.13;1.20;;;;;;;-145.69;66.55;52388.94;5075786;28;20783;-82
2023/11/26 06:56:12;;;;;;;1.33;0.83;;;;;;;-145.69;66.91;52404.78;5075609;28;20203;-82
2023/11/26 06:58:39;;;;;;;1.57;1.20;;;;;;;-145.69;67.20;52420.63;5075493;28;20202;-82
2023/11/26 07:01:07;;;;;;;2.70;1.00;;;;;;;-145.69;67.18;52365.16;5075083;28;20649;-82
2023/11/26 07:03:34;;;;;;;1.80;1.10;;;;;;;-145.69;67.47;52359.22;5075338;28;20205;-81
2023/11/26 07:06:07;;;;;;;1.83;1.30;;;;;;;-145.69;67.28;52404.78;5075240;28;20222;-81
2023/11/26 07:08:33;;;;;;;2.20;1.60;;;;;;;-145.69;66.62;52383.00;5075232;28;20241;-81
2023/11/26 07:11:00;;;;;;;2.33;1.30;;;;;;;-145.69;66.70;52386.97;5075978;28;20670;-81
2023/11/26 07:13:28;;;;;;;3.53;1.77;;;;;;;-145.69;67.25;52353.28;5076135;28;20210;-81
2023/11/26 07:15:55;;;;;;;2.50;1.87;;;;;;;-145.69;67.27;52369.13;5075917;28;20202;-81
2023/11/26 07:18:22;;;;;;;2.63;1.70;;;;;;;-145.69;67.36;52392.91;5074870;28;20550;-81
2023/11/26 07:21:00;;;;;;;3.43;1.87;;;;;;;-145.69;67.40;52369.13;5074983;28;20194;-81
2023/11/26 07:23:26;;;;;;;2.83;1.90;;;;;;;-145.69;67.42;52422.59;5074971;28;20198;-81
2023/11/26 07:25:53;;;;;;;3.03;1.73;;;;;;;-145.69;67.46;52388.94;5074535;28;20577;-81
2023/11/26 07:28:19;;;;;;;4.40;1.67;;;;;;;-145.69;67.15;52396.84;5057939;28;20203;-81
2023/11/26 07:30:47;;;;;;;2.27;1.70;;;;;;;-145.69;67.03;52371.13;5055112;28;20195;-81
2023/11/26 07:33:14;;;;;;;3.37;1.70;;;;;;;-145.69;67.80;52371.13;5070231;28;20207;-81
2023/11/26 07:35:42;;;;;;;5.53;2.87;;;;;;;-145.69;67.50;52404.78;5074551;28;20234;-81
2023/11/26 07:38:09;;;;;;;2.50;1.80;;;;;;;-145.69;67.23;52381.00;5074704;28;20211;-81
2023/11/26 07:40:45;;;;;;;4.43;2.20;;;;;;;-145.69;67.68;52418.63;5074768;28;20225;-81
2023/11/26 07:43:12;;;;;;;4.77;1.90;;;;;;;-145.69;66.75;52373.09;5074444;28;20217;-82
2023/11/26 07:45:41;;;;;;;3.57;1.83;;;;;;;-145.69;67.64;52396.84;5067085;28;20195;-82
2023/11/26 07:48:09;;;;;;;2.87;1.80;;;;;;;-145.69;67.76;52384.97;5054947;28;20294;-81
2023/11/26 07:50:39;;;;;;;4.37;1.80;;;;;;;-145.69;68.05;52375.06;5054157;28;20287;-82
2023/11/26 07:53:05;;;;;;;3.00;2.03;;;;;;;-145.69;68.07;52367.16;5054349;28;20195;-82
2023/11/26 07:55:33;;;;;;;3.93;2.50;;;;;;;-145.69;66.51;52379.03;5054566;28;20203;-81
2023/11/26 07:58:02;;;;;;;10.73;4.77;;;;;;;-145.69;66.53;52420.63;5054351;28;20720;-82
2023/11/26 08:00:29;;;;;;;7.90;3.57;;;;;;;-145.69;65.29;52349.31;5054030;28;20203;-82
2023/11/26 08:02:57;;;;;;;33.43;10.10;;;;;;;-145.69;65.66;52404.78;5053930;28;20200;-82
2023/11/26 08:05:25;;;;;;;15.13;6.80;;;;;;;-145.69;67.11;52353.28;5053998;28;20234;-82
2023/11/26 08:07:52;;;;;;;16.57;7.23;;;;;;;-145.69;66.80;52361.22;5053553;28;20563;-82
2023/11/26 08:10:26;;;;;;;19.60;7.57;;;;;;;-145.69;66.01;52377.06;5053882;28;20658;-82
2023/11/26 08:12:53;;;;;;;14.37;6.37;;;;;;;-145.69;66.99;52365.16;5054103;28;20204;-82
2023/11/26 08:15:28;;;;;;;15.73;6.90;;;;;;;-145.69;66.33;52373.09;5053848;28;20289;-82
2023/11/26 08:17:55;;;;;;;9.63;5.07;;;;;;;-145.69;66.26;52359.22;5065798;28;20264;-82
2023/11/26 08:20:22;;;;;;;7.80;4.40;;;;;;;-145.69;65.60;52384.97;5073948;28;20776;-82
2023/11/26 08:22:51;;;;;;;14.57;6.70;;;;;;;-145.69;62.82;52347.34;5072832;28;20202;-83
2023/11/26 08:25:22;;;;;;;12.10;6.17;;;;;;;-145.69;63.11;52392.91;5073494;28;20727;-81
2023/11/26 08:27:51;;;;;;;7.80;4.43;;;;;;;-145.69;64.32;52386.97;5073989;28;20226;-81
2023/11/26 08:30:31;;;;;;;4.07;2.77;;;;;;;-145.69;61.74;52369.13;5074887;28;20294;-79
2023/11/26 08:32:58;;;;;;;5.23;2.67;;;;;;;-145.69;63.81;52381.00;5074356;28;20209;-79
2023/11/26 08:35:27;;;;;;;3.73;2.70;;;;;;;-145.69;64.13;52377.06;5075068;28;20206;-80
2023/11/26 08:37:55;;;;;;;7.77;3.60;;;;;;;-145.69;63.90;52379.03;5076335;28;20642;-80
2023/11/26 08:40:22;;;;;;;9.43;4.53;;;;;;;-145.69;62.99;52410.72;5070820;28;20198;-80
2023/11/26 08:42:54;;;;;;;6.77;3.87;;;;;;;-145.69;62.24;52363.19;5070149;28;20206;-82
2023/11/26 08:45:20;;;;;;;24.97;9.00;;;;;;;-145.69;62.89;52357.25;5070674;28;20205;-82
2023/11/26 08:47:47;;;;;;;25.80;8.63;;;;;;;-145.69;62.27;52361.22;5063202;28;20233;-81
2023/11/26 08:50:14;;;;;;;9.90;5.13;;;;;;;-145.69;63.79;52384.97;5072862;28;20268;-82
2023/11/26 08:52:41;;;;;;;23.40;7.70;;;;;;;-145.69;63.17;52396.84;5073384;28;20203;-82
2023/11/26 08:55:13;;;;;;;31.50;12.40;;;;;;;-145.69;62.62;52377.06;5072815;28;20649;-82
2023/11/26 08:57:40;;;;;;;35.23;10.97;;;;;;;-145.69;61.39;52383.00;5073270;28;20205;-82
2023/11/26 09:00:09;;;;;;;43.70;14.80;;;;;;;-145.69;62.96;52373.09;5072823;28;20207;-81
2023/11/26 09:02:38;;;;;;;47.90;16.70;;;;;;;-145.69;64.49;52341.41;5052818;28;20435;-81
2023/11/26 09:05:08;;;;;;;18.23;6.30;;;;;;;-145.69;62.96;52363.19;5053063;28;20654;-81
2023/11/26 09:07:36;;;;;;;8.73;4.13;;;;;;;-145.69;62.35;52388.94;5071731;28;20234;-81
2023/11/26 09:10:03;;;;;;;11.97;6.20;;;;;;;-145.69;63.42;52369.13;5072747;28;20195;-82
2023/11/26 09:12:34;;;;;;;12.30;5.33;;;;;;;-145.69;63.17;52365.16;5072716;28;20207;-80
2023/11/26 09:15:02;;;;;;;15.13;6.67;;;;;;;-145.69;62.37;52357.25;5072797;28;20206;-82
2023/11/26 09:17:29;;;;;;;10.83;5.27;;;;;;;-145.69;62.97;52384.97;5071748;28;20209;-81
2023/11/26 09:19:55;;;;;;;8.03;5.43;;;;;;;-145.69;61.06;52383.00;5072944;28;20210;-82
2023/11/26 09:22:22;;;;;;;10.93;6.27;;;;;;;-145.69;61.21;52408.75;5072534;28;20205;-81
2023/11/26 09:24:49;;;;;;;10.20;5.50;;;;;;;-145.69;62.75;52384.97;5069373;28;20241;-82
2023/11/26 09:27:21;;;;;;;10.27;6.03;;;;;;;-145.69;63.85;52384.97;5072764;28;20226;-81
2023/11/26 09:29:49;;;;;;;12.47;6.07;;;;;;;-145.69;64.44;52369.13;5072666;28;20223;-81
2023/11/26 09:32:18;;;;;;;10.20;5.13;;;;;;;-145.69;63.74;52381.00;5072611;28;20222;-81
2023/11/26 09:34:45;;;;;;;7.43;4.80;;;;;;;-145.69;62.57;52388.94;5072118;28;20672;-81
2023/11/26 09:37:12;;;;;;;8.33;4.40;;;;;;;-145.69;62.17;52388.94;5072390;28;20202;-81
2023/11/26 09:39:38;;;;;;;10.40;5.20;;;;;;;-145.69;63.74;52396.84;5061394;28;20566;-81
2023/11/26 09:42:05;;;;;;;10.03;5.50;;;;;;;-145.69;64.53;52377.06;5052610;28;20224;-81
2023/11/26 09:44:32;;;;;;;13.77;4.00;;;;;;;-145.69;64.14;52353.28;5054332;28;20253;-81
2023/11/26 09:47:00;;;;;;;8.60;4.20;;;;;;;-145.69;64.10;52325.56;5056922;28;20222;-81
2023/11/26 09:49:27;;;;;;;7.90;4.00;;;;;;;-145.69;64.30;52388.94;5071257;28;20194;-80
2023/11/26 09:51:57;;;;;;;10.50;4.57;;;;;;;-145.69;64.80;52329.53;5072387;28;20214;-81
2023/11/26 09:54:24;;;;;;;6.40;3.97;;;;;;;-145.69;64.36;52329.53;5071172;28;20198;-81
2023/11/26 09:56:55;;;;;;;9.00;3.33;;;;;;;-145.69;64.06;52349.31;5052478;28;20713;-81
2023/11/26 09:59:26;;;;;;;10.03;4.40;;;;;;;-145.69;60.84;52343.38;5063703;28;20199;-80
2023/11/26 10:01:52;;;;;;;17.13;9.50;;;;;;;-145.69;60.34;52321.59;5081887;28;20281;-81
2023/11/26 10:04:21;;;;;;;15.43;10.60;;;;;;;-145.69;60.44;52373.09;5075375;28;20291;-79
2023/11/26 10:06:50;;;;;;;10.73;6.63;;;;;;;-145.69;60.69;52349.31;5057350;28;20576;-80
2023/11/26 10:09:17;;;;;;;8.00;4.03;;;;;;;-145.69;57.69;52339.44;5056848;28;20227;-81
2023/11/26 10:11:45;;;;;;;7.33;2.97;;;;;;;-145.69;58.83;52333.47;5057094;28;20267;-79
2023/11/26 10:14:14;;;;;;;9.23;3.30;;;;;;;-145.69;58.46;52365.16;5056197;28;20203;-80
2023/11/26 10:16:42;;;;;;;3.37;2.20;;;;;;;-145.69;60.82;52396.84;5057334;28;20207;-80
2023/11/26 10:19:26;;;;;;;7.63;2.53;;;;;;;-145.69;61.74;52341.41;5071365;28;20216;-80
2023/11/26 10:21:55;;;;;;;2.47;2.00;;;;;;;-145.69;61.71;52357.25;5055936;28;20662;-80
2023/11/26 10:24:23;;;;;;;6.27;2.87;;;;;;;-145.69;61.79;52337.44;5062590;28;20662;-80
2023/11/26 10:26:54;;;;;;;7.63;3.50;;;;;;;-145.69;60.35;52337.44;5075817;28;20577;-79
2023/11/26 10:29:25;;;;;;;6.17;3.80;;;;;;;-145.69;60.66;52337.44;5075781;28;20202;-80
2023/11/26 10:32:03;;;;;;;9.87;4.00;;;;;;;-145.69;57.96;52327.53;5076478;28;20293;-80
2023/11/26 10:34:34;;;;;;;6.37;3.53;;;;;;;-145.69;60.93;52337.44;5078053;28;20203;-80
2023/11/26 10:37:01;;;;;;;5.07;3.03;;;;;;;-145.69;58.72;52345.38;5082589;28;20203;-80
2023/11/26 10:39:30;;;;;;;4.43;2.80;;;;;;;-145.69;60.94;52319.63;5086452;28;20202;-80
2023/11/26 10:41:58;;;;;;;7.20;3.47;;;;;;;-145.69;58.51;52349.31;5075700;28;20199;-79
2023/11/26 10:44:28;;;;;;;7.50;3.05;;;;;;;-145.69;57.97;52323.59;5075321;28;20466;-78
2023/11/26 10:47:00;;;;;;;10.33;3.60;;;;;;;-145.69;52.89;52353.28;5073099;28;20225;-79
2023/11/26 10:49:37;;;;;;;4.83;2.63;;;;;;;-145.69;55.19;52353.28;5056903;28;20203;-79
2023/11/26 10:52:18;;;;;;;9.30;3.17;;;;;;;-145.69;55.17;52347.34;5058664;28;20191;-79
2023/11/26 10:54:53;;;;;;;6.47;2.70;;;;;;;-145.69;56.17;52339.44;5076269;28;20195;-79
2023/11/26 10:57:27;;;;;;;5.43;3.13;;;;;;;-145.69;55.94;52333.47;5075690;28;20209;-79
2023/11/26 11:00:00;;;;;;;10.37;3.93;;;;;;;-145.69;54.22;52333.47;5074758;28;20588;-79
2023/11/26 11:02:27;;;;;;;7.17;3.97;;;;;;;-145.69;54.50;52329.53;5075183;28;20206;-78
2023/11/26 11:04:56;;;;;;;13.83;6.77;;;;;;;-145.69;54.74;52347.34;5075123;28;20557;-78
2023/11/26 11:07:22;;;;;;;8.23;4.10;;;;;;;-145.69;54.13;52343.38;5074750;28;20262;-78
2023/11/26 11:10:02;;;;;;;8.43;3.97;;;;;;;-145.69;53.20;52341.41;5074031;28;20195;-79
2023/11/26 11:12:43;;;;;;;6.33;3.00;;;;;;;-145.69;52.11;52301.81;5074761;28;20642;-79
2023/11/26 11:15:10;;;;;;;8.60;4.30;;;;;;;-145.69;52.12;52333.47;5074616;28;20547;-79
2023/11/26 11:17:37;;;;;;;7.27;3.53;;;;;;;-145.69;52.06;52321.59;5074301;28;20199;-79
2023/11/26 11:20:06;;;;;;;9.47;4.23;;;;;;;-145.69;52.36;52321.59;5074694;28;20202;-79
2023/11/26 11:22:34;;;;;;;11.43;5.50;;;;;;;-145.69;51.50;52343.38;5074642;28;20297;-79
2023/11/26 11:25:09;;;;;;;10.90;4.70;;;;;;;-145.69;51.36;52333.47;5070096;28;20697;-79
2023/11/26 11:27:49;;;;;;;6.63;2.60;;;;;;;-145.69;51.03;52315.66;5054790;28;20281;-79